Time;durP1;ratioP1;P1;durP2;ratioP2;P2;SDS_P1;SDS_P2;PMS_P1;PMS_P2;Temp;Humidity;BMP_temperature;BMP_pressure;BME280_temperature;BME280_humidity;BME280_pressure;Samples;Min_cycle;Max_cycle;Signal;HPM_P1;HPM_P2
2021/11/04 00:01:55;;;;;;;;;;;16.70;43.70;;;;;;8364487;28;20370;-47
2021/11/04 00:05:57;;;;;;;;;;;16.70;43.70;;;;;;8363307;28;21282;-47
2021/11/04 00:09:57;;;;;;;;;;;16.70;43.70;;;;;;8364017;28;19928;-49
2021/11/04 00:13:58;;;;;;;;;;;16.70;43.70;;;;;;8364142;28;19913;-47
2021/11/04 00:17:59;;;;;;;;;;;16.70;43.70;;;;;;8363354;28;20015;-46
2021/11/04 00:21:59;;;;;;;;;;;16.70;43.70;;;;;;8363980;28;20324;-47
2021/11/04 00:26:00;;;;;;;;;;;16.70;43.70;;;;;;8362605;28;19917;-48
2021/11/04 00:30:01;;;;;;;;;;;16.70;43.70;;;;;;8363155;28;20013;-47
2021/11/04 00:34:01;;;;;;;;;;;16.80;43.70;;;;;;8363051;28;19912;-47
2021/11/04 00:38:02;;;;;;;;;;;16.70;43.60;;;;;;8363553;28;20342;-48
2021/11/04 00:42:02;;;;;;;;;;;16.70;43.60;;;;;;8362915;28;19917;-47
2021/11/04 00:46:03;;;;;;;;;;;16.70;43.60;;;;;;8363814;28;19917;-50
2021/11/04 00:50:04;;;;;;;;;;;16.70;43.60;;;;;;8363358;28;20373;-46
2021/11/04 00:54:05;;;;;;;;;;;16.70;43.60;;;;;;8363119;28;20259;-49
2021/11/04 00:58:05;;;;;;;;;;;16.70;43.60;;;;;;8363106;28;19968;-47
2021/11/04 01:02:06;;;;;;;;;;;16.70;43.60;;;;;;8363145;28;20350;-47
2021/11/04 01:06:06;;;;;;;;;;;16.70;43.60;;;;;;8362725;28;19978;-47
2021/11/04 01:10:07;;;;;;;;;;;16.70;43.60;;;;;;8362930;28;20377;-47
2021/11/04 01:14:07;;;;;;;;;;;16.70;43.60;;;;;;8363185;28;19924;-48
2021/11/04 01:18:08;;;;;;;;;;;16.70;43.60;;;;;;8362333;28;19979;-47
2021/11/04 01:22:09;;;;;;;;;;;16.70;44.10;;;;;;8362689;28;20007;-47
2021/11/04 01:26:09;;;;;;;;;;;16.70;43.50;;;;;;8362900;28;19940;-49
2021/11/04 01:30:10;;;;;;;;;;;16.70;43.50;;;;;;8362230;28;19925;-46
2021/11/04 01:34:10;;;;;;;;;;;16.70;43.60;;;;;;8363236;28;19920;-47
2021/11/04 01:38:11;;;;;;;;;;;16.70;43.60;;;;;;8362750;28;19971;-47
2021/11/04 01:42:11;;;;;;;;;;;16.70;43.50;;;;;;8362119;28;19916;-46
2021/11/04 01:46:12;;;;;;;;;;;16.70;43.50;;;;;;8366069;28;19999;-47
2021/11/04 01:50:13;;;;;;;;;;;16.70;43.50;;;;;;8368290;28;19921;-47
2021/11/04 01:54:13;;;;;;;;;;;16.70;43.50;;;;;;8368204;28;19921;-46
2021/11/04 01:58:15;;;;;;;;;;;16.70;43.50;;;;;;8368317;28;20066;-49
2021/11/04 02:02:19;;;;;;;;;;;16.70;43.50;;;;;;8367636;28;20361;-49
2021/11/04 02:06:26;;;;;;;;;;;16.60;43.40;;;;;;8367295;28;20340;-47
2021/11/04 02:10:30;;;;;;;;;;;16.70;43.50;;;;;;8367710;28;19924;-47
2021/11/04 02:14:32;;;;;;;;;;;16.70;43.50;;;;;;8367448;28;20095;-50
2021/11/04 02:18:33;;;;;;;;;;;16.70;43.50;;;;;;8367672;28;20062;-48
2021/11/04 02:22:37;;;;;;;;;;;16.70;43.40;;;;;;8367290;28;19916;-47
2021/11/04 02:26:38;;;;;;;;;;;16.70;43.50;;;;;;8367300;28;19921;-48
2021/11/04 02:30:39;;;;;;;;;;;16.70;43.40;;;;;;8367441;28;19970;-50
2021/11/04 02:34:40;;;;;;;;;;;16.70;43.40;;;;;;8367425;28;20441;-48
2021/11/04 02:38:41;;;;;;;;;;;16.70;43.40;;;;;;8366540;28;20365;-47
2021/11/04 02:42:42;;;;;;;;;;;16.60;43.40;;;;;;8366880;28;19917;-49
2021/11/04 02:46:42;;;;;;;;;;;16.60;43.40;;;;;;8366912;28;19924;-48
2021/11/04 02:50:46;;;;;;;;;;;16.60;43.40;;;;;;8366154;28;20003;-48
2021/11/04 02:54:53;;;;;;;;;;;16.60;43.40;;;;;;8366952;28;20400;-47
2021/11/04 02:58:58;;;;;;;;;;;16.60;43.40;;;;;;8365715;28;19924;-48
2021/11/04 03:02:58;;;;;;;;;;;16.60;43.40;;;;;;8365743;28;19916;-48
2021/11/04 03:06:58;;;;;;;;;;;16.60;43.40;;;;;;8366001;28;20351;-49
2021/11/04 03:10:59;;;;;;;;;;;16.60;43.40;;;;;;8366150;28;19916;-49
2021/11/04 03:15:00;;;;;;;;;;;16.60;43.40;;;;;;8365553;28;20008;-47
2021/11/04 03:19:01;;;;;;;;;;;16.60;43.40;;;;;;8365515;28;19967;-48
2021/11/04 03:23:02;;;;;;;;;;;16.60;43.40;;;;;;8365536;28;19917;-49
2021/11/04 03:27:05;;;;;;;;;;;16.60;43.40;;;;;;8364942;28;19942;-49
2021/11/04 03:31:05;;;;;;;;;;;16.60;43.40;;;;;;8365292;28;19921;-47
2021/11/04 03:35:06;;;;;;;;;;;16.60;43.40;;;;;;8365369;28;19912;-50
2021/11/04 03:39:07;;;;;;;;;;;16.60;43.30;;;;;;8364511;28;19925;-47
2021/11/04 03:43:08;;;;;;;;;;;16.60;43.40;;;;;;8364800;28;19928;-47
2021/11/04 03:47:09;;;;;;;;;;;16.60;43.40;;;;;;8364870;28;19923;-47
2021/11/04 03:51:10;;;;;;;;;;;16.60;43.30;;;;;;8364260;28;19921;-46
2021/11/04 03:55:12;;;;;;;;;;;16.60;43.40;;;;;;8365110;28;19920;-48
2021/11/04 03:59:12;;;;;;;;;;;16.60;43.30;;;;;;8364336;28;20344;-49
2021/11/04 04:03:13;;;;;;;;;;;16.60;43.40;;;;;;8363903;28;20001;-47
2021/11/04 04:07:13;;;;;;;;;;;16.60;43.30;;;;;;8364303;28;20366;-47
2021/11/04 04:11:14;;;;;;;;;;;16.60;43.30;;;;;;8363799;28;19916;-47
2021/11/04 04:15:14;;;;;;;;;;;16.60;43.30;;;;;;8364190;28;19948;-48
2021/11/04 04:19:15;;;;;;;;;;;16.60;43.30;;;;;;8364017;28;19928;-50
2021/11/04 04:23:15;;;;;;;;;;;16.60;43.30;;;;;;8363627;28;19917;-50
2021/11/04 04:27:16;;;;;;;;;;;16.60;43.30;;;;;;8363849;28;19921;-47
2021/11/04 04:31:16;;;;;;;;;;;16.60;43.30;;;;;;8363729;28;19924;-47
2021/11/04 04:35:17;;;;;;;;;;;16.60;43.30;;;;;;8363469;28;19913;-47
2021/11/04 04:39:18;;;;;;;;;;;16.60;43.30;;;;;;8363846;28;19963;-46
2021/11/04 04:43:18;;;;;;;;;;;16.60;43.30;;;;;;8363425;28;19948;-48
2021/11/04 04:47:18;;;;;;;;;;;16.60;43.30;;;;;;8363316;28;19924;-47
2021/11/04 04:51:19;;;;;;;;;;;16.60;43.30;;;;;;8363391;28;19917;-47
2021/11/04 04:55:20;;;;;;;;;;;16.60;43.30;;;;;;8363401;28;19927;-47
2021/11/04 04:59:20;;;;;;;;;;;16.60;43.30;;;;;;8362751;28;20015;-47
2021/11/04 05:03:21;;;;;;;;;;;16.60;43.30;;;;;;8362959;28;19921;-47
2021/11/04 05:07:21;;;;;;;;;;;16.60;43.30;;;;;;8362250;28;20281;-50
2021/11/04 05:11:21;;;;;;;;;;;16.60;43.30;;;;;;8362754;28;19965;-47
2021/11/04 05:15:22;;;;;;;;;;;16.60;43.20;;;;;;8363310;28;20433;-47
2021/11/04 05:19:23;;;;;;;;;;;16.60;43.20;;;;;;8363642;28;19928;-47
2021/11/04 05:23:24;;;;;;;;;;;16.60;43.20;;;;;;8368966;28;19966;-47
2021/11/04 05:27:25;;;;;;;;;;;16.60;43.30;;;;;;8369099;28;20374;-51
2021/11/04 05:31:26;;;;;;;;;;;16.60;43.30;;;;;;8369328;28;19932;-48
2021/11/04 05:35:28;;;;;;;;;;;16.60;43.30;;;;;;8369091;28;19913;-48
2021/11/04 05:39:29;;;;;;;;;;;16.60;43.30;;;;;;8369040;28;20329;-47
2021/11/04 05:43:29;;;;;;;;;;;16.60;43.30;;;;;;8368803;28;19921;-49
2021/11/04 05:47:30;;;;;;;;;;;16.60;43.30;;;;;;8368230;28;20366;-48
2021/11/04 05:51:30;;;;;;;;;;;16.60;43.30;;;;;;8368691;28;19913;-51
2021/11/04 05:55:31;;;;;;;;;;;16.60;43.30;;;;;;8368547;28;19982;-48
2021/11/04 05:59:31;;;;;;;;;;;16.60;43.30;;;;;;8367550;28;19970;-47
2021/11/04 06:03:32;;;;;;;;;;;16.50;43.20;;;;;;8368290;28;19916;-48
2021/11/04 06:07:32;;;;;;;;;;;16.50;43.30;;;;;;8367906;28;20361;-50
2021/11/04 06:11:32;;;;;;;;;;;16.50;43.30;;;;;;8367568;28;19916;-47
2021/11/04 06:15:33;;;;;;;;;;;16.50;43.30;;;;;;8368034;28;19917;-48
2021/11/04 06:19:34;;;;;;;;;;;16.50;43.30;;;;;;8367564;28;19925;-48
2021/11/04 06:23:34;;;;;;;;;;;16.50;43.30;;;;;;8367270;28;19924;-47
2021/11/04 06:27:35;;;;;;;;;;;16.50;43.30;;;;;;8367160;28;19920;-47
2021/11/04 06:31:36;;;;;;;;;;;16.50;43.30;;;;;;8366319;28;19970;-48
2021/11/04 06:35:36;;;;;;;;;;;16.50;43.30;;;;;;8366887;28;19913;-48
2021/11/04 06:39:37;;;;;;;;;;;16.50;43.40;;;;;;8366835;28;19925;-48
2021/11/04 06:43:37;;;;;;;;;;;16.50;43.40;;;;;;8366915;28;19916;-47
2021/11/04 06:47:44;;;;;;;;;;;16.50;43.40;;;;;;8366346;28;20334;-47
2021/11/04 06:51:47;;;;;;;;;;;16.50;43.30;;;;;;8366474;28;19959;-48
2021/11/04 06:55:50;;;;;;;;;;;16.50;43.30;;;;;;8366988;28;20332;-49
2021/11/04 06:59:54;;;;;;;;;;;16.50;43.30;;;;;;8365929;28;19925;-49
2021/11/04 07:04:02;;;;;;;;;;;16.50;43.30;;;;;;8366345;28;19970;-48
2021/11/04 07:08:04;;;;;;;;;;;16.50;43.30;;;;;;8366146;28;19916;-48
2021/11/04 07:12:05;;;;;;;;;;;16.50;43.30;;;;;;8365747;28;20012;-48
2021/11/04 07:16:06;;;;;;;;;;;16.50;43.30;;;;;;8366050;28;19947;-47
2021/11/04 07:20:07;;;;;;;;;;;16.50;43.20;;;;;;8365661;28;19925;-48
2021/11/04 07:24:08;;;;;;;;;;;16.50;43.20;;;;;;8364925;28;19921;-48
2021/11/04 07:28:17;;;;;;;;;;;16.50;43.30;;;;;;8365242;28;19917;-47
2021/11/04 07:32:17;;;;;;;;;;;16.50;43.20;;;;;;8364871;28;19952;-48
2021/11/04 07:36:19;;;;;;;;;;;16.50;43.20;;;;;;8366389;28;20278;-49
2021/11/04 07:40:21;;;;;;;;;;;16.50;43.20;;;;;;8365177;28;19925;-50
2021/11/04 07:44:21;;;;;;;;;;;16.50;43.70;;;;;;8364497;28;20074;-49
2021/11/04 07:48:22;;;;;;;;;;;16.50;43.20;;;;;;8364716;28;20382;-48
2021/11/04 07:52:22;;;;;;;;;;;16.50;43.20;;;;;;8364678;28;21842;-48
2021/11/04 07:56:23;;;;;;;;;;;16.50;43.20;;;;;;8364972;28;19920;-48
2021/11/04 08:00:28;;;;;;;;;;;16.50;43.20;;;;;;8364681;28;19932;-48
2021/11/04 08:04:28;;;;;;;;;;;16.50;43.20;;;;;;8360315;28;19927;-48
2021/11/04 08:08:29;;;;;;;;;;;16.50;43.30;;;;;;8342056;28;19980;-50
2021/11/04 08:12:29;;;;;;;;;;;16.50;43.20;;;;;;8364156;28;20393;-47
2021/11/04 08:16:30;;;;;;;;;;;16.50;43.20;;;;;;8364304;28;20301;-47
2021/11/04 08:20:30;;;;;;;;;;;16.50;43.30;;;;;;8363521;28;19928;-50
2021/11/04 08:24:31;;;;;;;;;;;16.50;43.30;;;;;;8363816;28;19917;-46
2021/11/04 08:28:32;;;;;;;;;;;16.50;43.30;;;;;;8364228;28;20065;-47
2021/11/04 08:32:32;;;;;;;;;;;16.50;43.30;;;;;;8363355;28;19921;-47
2021/11/04 08:36:33;;;;;;;;;;;16.50;43.30;;;;;;8364134;28;19913;-47
2021/11/04 08:40:33;;;;;;;;;;;16.50;43.30;;;;;;8363239;28;19945;-49
2021/11/04 08:44:33;;;;;;;;;;;16.50;43.30;;;;;;8363310;28;19974;-49
2021/11/04 08:48:34;;;;;;;;;;;16.50;43.30;;;;;;8363434;28;19917;-46
2021/11/04 08:52:36;;;;;;;;;;;16.50;43.30;;;;;;8363385;28;19913;-48
2021/11/04 08:56:37;;;;;;;;;;;16.50;43.20;;;;;;8368545;28;19928;-50
2021/11/04 09:00:37;;;;;;;;;;;16.50;43.30;;;;;;8370157;28;19925;-48
2021/11/04 09:04:42;;;;;;;;;;;16.50;43.70;;;;;;8370049;28;19913;-48
2021/11/04 09:08:42;;;;;;;;;;;16.60;43.30;;;;;;8369388;28;19943;-49
2021/11/04 09:12:43;;;;;;;;;;;16.60;43.30;;;;;;8369509;28;19943;-48
2021/11/04 09:16:43;;;;;;;;;;;16.60;43.20;;;;;;8369676;28;20290;-50
2021/11/04 09:20:44;;;;;;;;;;;16.60;43.20;;;;;;8368951;28;19925;-50
2021/11/04 09:24:44;;;;;;;;;;;16.60;43.20;;;;;;8369273;28;20281;-45
2021/11/04 09:28:45;;;;;;;;;;;16.60;43.10;;;;;;8369216;28;19916;-49
2021/11/04 09:32:46;;;;;;;;;;;16.60;43.10;;;;;;8368557;28;19924;-48
2021/11/04 09:36:46;;;;;;;;;;;16.60;43.10;;;;;;8369532;28;19925;-47
2021/11/04 09:40:47;;;;;;;;;;;16.60;43.10;;;;;;8368681;28;19937;-46
2021/11/04 09:44:48;;;;;;;;;;;16.60;43.10;;;;;;8368288;28;19921;-48
2021/11/04 09:48:49;;;;;;;;;;;16.60;43.10;;;;;;8368475;28;19974;-48
2021/11/04 09:52:53;;;;;;;;;;;16.60;43.10;;;;;;8368617;28;20258;-45
2021/11/04 09:56:54;;;;;;;;;;;16.60;43.10;;;;;;8368245;28;19967;-50
2021/11/04 10:00:54;;;;;;;;;;;16.60;43.10;;;;;;8368518;28;19925;-49
2021/11/04 10:05:03;;;;;;;;;;;16.60;43.10;;;;;;8367837;28;19916;-46
2021/11/04 10:09:05;;;;;;;;;;;16.60;43.20;;;;;;8367183;28;19917;-48
2021/11/04 10:13:07;;;;;;;;;;;16.60;43.20;;;;;;8367738;28;19913;-46
2021/11/04 10:17:26;;;;;;;;;;;16.60;43.20;;;;;;8367671;28;19917;-47
2021/11/04 10:21:27;;;;;;;;;;;16.60;43.20;;;;;;8367504;28;19969;-46
2021/11/04 10:25:28;;;;;;;;;;;16.60;43.20;;;;;;8367484;28;20422;-46
2021/11/04 10:29:37;;;;;;;;;;;16.60;43.20;;;;;;8365255;28;19991;-46
2021/11/04 10:33:39;;;;;;;;;;;16.60;43.20;;;;;;8367313;28;19913;-47
2021/11/04 10:37:50;;;;;;;;;;;16.50;43.20;;;;;;8367255;28;19943;-48
2021/11/04 10:41:53;;;;;;;;;;;16.60;43.20;;;;;;8366252;28;19932;-47
2021/11/04 10:46:04;;;;;;;;;;;16.60;43.20;;;;;;8367280;28;19925;-48
2021/11/04 10:50:05;;;;;;;;;;;16.60;43.20;;;;;;8366761;28;20343;-47
2021/11/04 10:54:07;;;;;;;;;;;16.60;43.50;;;;;;8365920;28;19960;-48
2021/11/04 10:58:27;;;;;;;;;;;16.60;43.20;;;;;;8366528;28;20011;-47
2021/11/04 11:02:27;;;;;;;;;;;16.60;43.20;;;;;;8366082;28;20008;-48
2021/11/04 11:06:29;;;;;;;;;;;16.60;43.20;;;;;;8366450;28;19916;-47
2021/11/04 11:10:31;;;;;;;;;;;16.60;43.20;;;;;;8353245;28;19917;-49
2021/11/04 11:14:36;;;;;;;;;;;16.60;43.20;;;;;;8365782;28;19923;-49
2021/11/04 11:18:37;;;;;;;;;;;16.60;43.10;;;;;;8365241;28;19920;-48
2021/11/04 11:22:42;;;;;;;;;;;16.60;43.10;;;;;;8365761;28;20055;-47
2021/11/04 11:26:44;;;;;;;;;;;16.60;43.10;;;;;;8365365;28;19917;-48
2021/11/04 11:31:03;;;;;;;;;;;16.60;43.10;;;;;;8365647;28;19916;-46
2021/11/04 11:35:15;;;;;;;;;;;16.60;43.10;;;;;;8365310;28;20281;-52
2021/11/04 11:39:16;;;;;;;;;;;16.60;43.00;;;;;;8364701;28;19933;-48
2021/11/04 11:43:17;;;;;;;;;;;16.70;43.10;;;;;;8365286;28;19966;-48
2021/11/04 11:47:19;;;;;;;;;;;16.70;43.00;;;;;;8364430;28;19923;-48
2021/11/04 11:51:35;;;;;;;;;;;16.70;43.60;;;;;;8365349;28;19916;-47
2021/11/04 11:55:39;;;;;;;;;;;16.70;43.00;;;;;;8364811;28;20377;-46
2021/11/04 11:59:50;;;;;;;;;;;16.60;43.00;;;;;;8364034;28;20429;-48
2021/11/04 12:04:00;;;;;;;;;;;16.70;43.00;;;;;;8364057;28;19913;-48
2021/11/04 12:08:09;;;;;;;;;;;16.70;43.00;;;;;;8364487;28;20322;-47
2021/11/04 12:12:29;;;;;;;;;;;16.70;43.00;;;;;;8363769;28;20011;-47
2021/11/04 12:16:30;;;;;;;;;;;16.70;43.00;;;;;;8364251;28;19921;-47
2021/11/04 12:20:30;;;;;;;;;;;16.70;43.00;;;;;;8363553;28;20011;-48
2021/11/04 12:24:31;;;;;;;;;;;16.70;43.00;;;;;;8364012;28;19924;-46
2021/11/04 12:28:44;;;;;;;;;;;16.70;43.00;;;;;;8363216;28;19924;-48
2021/11/04 12:32:57;;;;;;;;;;;16.70;43.00;;;;;;8363093;28;20006;-49
2021/11/04 12:36:59;;;;;;;;;;;16.70;43.00;;;;;;8363866;28;20450;-48
2021/11/04 12:41:06;;;;;;;;;;;16.70;43.00;;;;;;8363626;28;20401;-48
2021/11/04 12:45:07;;;;;;;;;;;16.70;43.00;;;;;;8363244;28;19921;-49
2021/11/04 12:49:07;;;;;;;;;;;16.70;43.00;;;;;;8363672;28;20329;-49
2021/11/04 12:53:08;;;;;;;;;;;16.70;43.00;;;;;;8363681;28;19923;-48
2021/11/04 12:57:10;;;;;;;;;;;16.70;43.00;;;;;;8363421;28;19920;-48
2021/11/04 13:01:10;;;;;;;;;;;16.70;43.00;;;;;;8362211;28;20001;-49
2021/11/04 13:05:12;;;;;;;;;;;16.70;43.00;;;;;;8363201;28;19927;-47
2021/11/04 13:09:13;;;;;;;;;;;16.70;43.00;;;;;;8362814;28;19916;-46
2021/11/04 13:13:13;;;;;;;;;;;16.70;42.90;;;;;;8363366;28;19939;-46
2021/11/04 13:17:13;;;;;;;;;;;16.70;42.90;;;;;;8363041;28;20401;-47
2021/11/04 13:21:24;;;;;;;;;;;16.70;43.20;;;;;;8362908;28;19925;-46
2021/11/04 13:25:26;;;;;;;;;;;16.70;42.90;;;;;;8363025;28;19974;-45
2021/11/04 13:29:45;;;;;;;;;;;16.70;42.90;;;;;;8362328;28;19925;-47
2021/11/04 13:33:48;;;;;;;;;;;16.70;42.90;;;;;;8363321;28;19920;-46
2021/11/04 13:38:01;;;;;;;;;;;16.70;42.90;;;;;;8362625;28;19917;-46
2021/11/04 13:42:02;;;;;;;;;;;16.70;42.80;;;;;;8365701;28;19932;-47
2021/11/04 13:46:14;;;;;;;;;;;16.80;42.80;;;;;;8368853;28;19995;-46
2021/11/04 13:50:16;;;;;;;;;;;16.80;42.80;;;;;;8368408;28;19917;-46
2021/11/04 13:54:21;;;;;;;;;;;16.80;42.80;;;;;;8368998;28;20377;-46
2021/11/04 13:58:39;;;;;;;;;;;16.80;42.70;;;;;;8368525;28;20266;-45
2021/11/04 14:02:41;;;;;;;;;;;16.80;43.30;;;;;;8367717;28;20012;-46
2021/11/04 14:06:43;;;;;;;;;;;16.80;42.70;;;;;;8368125;28;19990;-49
2021/11/04 14:10:43;;;;;;;;;;;16.80;42.70;;;;;;8354872;28;19963;-48
2021/11/04 14:14:46;;;;;;;;;;;16.80;42.70;;;;;;8367538;28;20286;-46
2021/11/04 14:18:46;;;;;;;;;;;16.80;42.80;;;;;;8368539;28;19924;-47
2021/11/04 14:22:47;;;;;;;;;;;16.80;42.80;;;;;;8367702;28;19924;-46
2021/11/04 14:26:47;;;;;;;;;;;16.70;42.80;;;;;;8366952;28;19921;-46
2021/11/04 14:30:48;;;;;;;;;;;16.80;42.80;;;;;;8367269;28;19940;-47
2021/11/04 14:34:49;;;;;;;;;;;16.70;42.80;;;;;;8367062;28;19924;-47
2021/11/04 14:38:49;;;;;;;;;;;16.70;42.80;;;;;;8366783;28;19925;-47
2021/11/04 14:42:50;;;;;;;;;;;16.70;42.80;;;;;;8366957;28;19960;-47
2021/11/04 14:46:50;;;;;;;;;;;16.80;42.80;;;;;;8366892;28;20000;-47
2021/11/04 14:50:51;;;;;;;;;;;16.70;42.80;;;;;;8366204;28;19963;-47
2021/11/04 14:54:51;;;;;;;;;;;16.70;42.80;;;;;;8365734;28;19974;-47
2021/11/04 14:58:52;;;;;;;;;;;16.70;42.80;;;;;;8366696;28;19932;-47
2021/11/04 15:02:52;;;;;;;;;;;16.80;42.80;;;;;;8365929;28;19924;-46
2021/11/04 15:06:53;;;;;;;;;;;16.70;42.80;;;;;;8366193;28;19924;-46
2021/11/04 15:10:53;;;;;;;;;;;16.70;42.80;;;;;;8366217;28;19913;-47
2021/11/04 15:14:54;;;;;;;;;;;16.70;42.80;;;;;;8365836;28;20405;-46
2021/11/04 15:18:55;;;;;;;;;;;16.70;42.80;;;;;;8365960;28;19925;-47
2021/11/04 15:22:56;;;;;;;;;;;16.70;42.80;;;;;;8365813;28;19916;-46
2021/11/04 15:26:56;;;;;;;;;;;16.70;42.80;;;;;;8365103;28;20341;-47
2021/11/04 15:30:59;;;;;;;;;;;16.70;42.80;;;;;;8365717;28;20276;-47
2021/11/04 15:34:59;;;;;;;;;;;16.70;42.90;;;;;;8365468;28;19963;-48
2021/11/04 15:39:00;;;;;;;;;;;16.70;42.90;;;;;;8364754;28;19925;-48
2021/11/04 15:43:00;;;;;;;;;;;16.70;42.90;;;;;;8364925;28;19924;-47
2021/11/04 15:47:01;;;;;;;;;;;16.70;42.90;;;;;;8364846;28;20378;-46
2021/11/04 15:51:03;;;;;;;;;;;16.70;42.90;;;;;;8364335;28;20370;-46
2021/11/04 15:55:04;;;;;;;;;;;16.70;42.80;;;;;;8365363;28;19928;-46
2021/11/04 15:59:04;;;;;;;;;;;16.70;42.80;;;;;;8364521;28;19931;-47
2021/11/04 16:03:04;;;;;;;;;;;16.70;42.80;;;;;;8363725;28;19928;-47
2021/11/04 16:07:05;;;;;;;;;;;16.70;42.90;;;;;;8364400;28;19940;-47
2021/11/04 16:11:06;;;;;;;;;;;16.70;42.80;;;;;;8364178;28;19940;-46
2021/11/04 16:15:07;;;;;;;;;;;16.70;42.80;;;;;;8363810;28;20346;-49
2021/11/04 16:19:07;;;;;;;;;;;16.60;42.80;;;;;;8364312;28;19932;-47
2021/11/04 16:23:08;;;;;;;;;;;16.70;42.90;;;;;;8363963;28;19927;-46
2021/11/04 16:27:09;;;;;;;;;;;16.70;42.80;;;;;;8363269;28;19921;-48
2021/11/04 16:31:09;;;;;;;;;;;16.70;42.90;;;;;;8364019;28;19976;-47
2021/11/04 16:35:09;;;;;;;;;;;16.70;42.80;;;;;;8364202;28;19919;-48
2021/11/04 16:39:10;;;;;;;;;;;16.70;42.80;;;;;;8363515;28;19970;-47
2021/11/04 16:43:10;;;;;;;;;;;16.70;42.80;;;;;;8363720;28;19999;-48
2021/11/04 16:47:11;;;;;;;;;;;16.70;42.80;;;;;;8363554;28;20382;-48
2021/11/04 16:51:13;;;;;;;;;;;16.70;42.90;;;;;;8363171;28;19967;-47
2021/11/04 16:55:14;;;;;;;;;;;16.60;42.80;;;;;;8364132;28;20366;-48
2021/11/04 16:59:14;;;;;;;;;;;16.60;42.80;;;;;;8362764;28;19925;-48
2021/11/04 17:03:15;;;;;;;;;;;16.60;42.80;;;;;;8363141;28;19978;-49
2021/11/04 17:07:15;;;;;;;;;;;16.60;42.80;;;;;;8363837;28;20011;-49
2021/11/04 17:11:15;;;;;;;;;;;16.60;42.80;;;;;;8362129;28;19974;-49
2021/11/04 17:15:16;;;;;;;;;;;16.60;42.80;;;;;;8363974;28;19917;-48
2021/11/04 17:19:17;;;;;;;;;;;16.60;42.80;;;;;;8369571;28;19925;-48
2021/11/04 17:23:17;;;;;;;;;;;16.60;42.80;;;;;;8368946;28;19924;-51
2021/11/04 17:27:18;;;;;;;;;;;16.60;42.90;;;;;;8369176;28;19917;-48
2021/11/04 17:31:19;;;;;;;;;;;16.60;42.80;;;;;;8369489;28;19917;-49
2021/11/04 17:35:20;;;;;;;;;;;16.60;42.90;;;;;;8368846;28;19913;-48
2021/11/04 17:39:20;;;;;;;;;;;16.60;42.90;;;;;;8368918;28;19925;-50
2021/11/04 17:43:21;;;;;;;;;;;16.60;42.90;;;;;;8368658;28;19956;-50
2021/11/04 17:47:23;;;;;;;;;;;16.60;42.90;;;;;;8368286;28;19932;-50
2021/11/04 17:51:24;;;;;;;;;;;16.60;42.80;;;;;;8368878;28;20373;-49
2021/11/04 17:55:24;;;;;;;;;;;16.60;42.80;;;;;;8369156;28;19925;-49
2021/11/04 17:59:25;;;;;;;;;;;16.60;42.90;;;;;;8367986;28;19969;-50
2021/11/04 18:03:26;;;;;;;;;;;16.60;42.80;;;;;;8368467;28;19923;-48
2021/11/04 18:07:26;;;;;;;;;;;16.60;42.80;;;;;;8367968;28;19933;-47
2021/11/04 18:11:27;;;;;;;;;;;16.60;42.80;;;;;;8367510;28;19913;-47
2021/11/04 18:15:30;;;;;;;;;;;16.60;42.80;;;;;;8368458;28;19919;-48
2021/11/04 18:19:30;;;;;;;;;;;16.60;42.80;;;;;;8367828;28;19971;-49
2021/11/04 18:23:31;;;;;;;;;;;16.60;42.80;;;;;;8367260;28;19916;-49
2021/11/04 18:27:31;;;;;;;;;;;16.60;42.80;;;;;;8367376;28;19917;-47
2021/11/04 18:31:33;;;;;;;;;;;16.60;42.80;;;;;;8367338;28;19913;-50
2021/11/04 18:35:33;;;;;;;;;;;16.60;42.80;;;;;;8366736;28;19916;-48
2021/11/04 18:39:34;;;;;;;;;;;16.60;42.80;;;;;;8367074;28;20007;-48
2021/11/04 18:43:34;;;;;;;;;;;16.50;42.80;;;;;;8366928;28;19917;-49
2021/11/04 18:47:35;;;;;;;;;;;16.50;42.70;;;;;;8366226;28;19990;-49
2021/11/04 18:51:35;;;;;;;;;;;16.60;42.90;;;;;;8366717;28;20006;-49
2021/11/04 18:55:36;;;;;;;;;;;16.50;42.80;;;;;;8367324;28;19947;-48
2021/11/04 18:59:37;;;;;;;;;;;16.60;42.80;;;;;;8366024;28;19984;-50
2021/11/04 19:03:37;;;;;;;;;;;16.50;42.80;;;;;;8366505;28;19952;-49
2021/11/04 19:07:38;;;;;;;;;;;16.50;42.80;;;;;;8366069;28;19916;-51
2021/11/04 19:11:38;;;;;;;;;;;16.50;42.80;;;;;;8365668;28;19920;-49
2021/11/04 19:15:39;;;;;;;;;;;16.50;42.80;;;;;;8366052;28;19913;-50
2021/11/04 19:19:40;;;;;;;;;;;16.50;42.80;;;;;;8365724;28;19986;-52
2021/11/04 19:23:40;;;;;;;;;;;16.50;42.80;;;;;;8365326;28;19917;-50
2021/11/04 19:27:41;;;;;;;;;;;16.50;42.80;;;;;;8365743;28;19924;-49
2021/11/04 19:31:42;;;;;;;;;;;16.50;42.80;;;;;;8365954;28;19913;-49
2021/11/04 19:35:42;;;;;;;;;;;16.50;42.90;;;;;;8365010;28;19971;-49
2021/11/04 19:39:43;;;;;;;;;;;16.50;42.90;;;;;;8364764;28;19970;-50
2021/11/04 19:43:43;;;;;;;;;;;16.50;42.80;;;;;;8365198;28;19917;-52
2021/11/04 19:47:46;;;;;;;;;;;16.50;42.80;;;;;;8364630;28;20425;-52
2021/11/04 19:51:46;;;;;;;;;;;16.50;42.80;;;;;;8365372;28;19924;-48
2021/11/04 19:55:47;;;;;;;;;;;16.50;42.90;;;;;;8365115;28;19999;-48
2021/11/04 19:59:49;;;;;;;;;;;16.40;42.80;;;;;;8364507;28;20428;-48
2021/11/04 20:03:50;;;;;;;;;;;16.50;42.80;;;;;;8364709;28;19963;-50
2021/11/04 20:07:52;;;;;;;;;;;16.50;42.80;;;;;;8363437;28;20380;-49
2021/11/04 20:11:52;;;;;;;;;;;16.50;42.80;;;;;;8364229;28;19917;-51
2021/11/04 20:15:53;;;;;;;;;;;16.50;42.90;;;;;;8364247;28;19920;-50
2021/11/04 20:19:53;;;;;;;;;;;16.50;42.80;;;;;;8364124;28;19925;-49
2021/11/04 20:23:55;;;;;;;;;;;16.50;42.80;;;;;;8363485;28;19924;-47
2021/11/04 20:27:55;;;;;;;;;;;16.40;42.80;;;;;;8364199;28;20381;-47
2021/11/04 20:31:56;;;;;;;;;;;16.40;42.80;;;;;;8364263;28;20008;-48
2021/11/04 20:35:59;;;;;;;;;;;16.50;42.90;;;;;;8362839;28;20078;-48
2021/11/04 20:39:59;;;;;;;;;;;16.40;42.80;;;;;;8363680;28;20024;-49
2021/11/04 20:44:00;;;;;;;;;;;16.50;42.90;;;;;;8363871;28;20262;-49
2021/11/04 20:48:01;;;;;;;;;;;16.50;42.90;;;;;;8363331;28;19916;-47
2021/11/04 20:52:01;;;;;;;;;;;16.50;42.80;;;;;;8367508;28;19913;-49
2021/11/04 20:56:02;;;;;;;;;;;16.40;42.80;;;;;;8371025;28;19921;-47
2021/11/04 21:00:06;;;;;;;;;;;16.50;42.80;;;;;;8369705;28;19925;-48
2021/11/04 21:04:06;;;;;;;;;;;16.40;42.80;;;;;;8370043;28;19921;-48
2021/11/04 21:08:07;;;;;;;;;;;16.50;42.80;;;;;;8369979;28;19962;-48
2021/11/04 21:12:08;;;;;;;;;;;16.40;42.80;;;;;;8369679;28;19916;-50
2021/11/04 21:16:08;;;;;;;;;;;16.40;42.80;;;;;;8369748;28;19921;-52
2021/11/04 21:20:10;;;;;;;;;;;16.40;42.80;;;;;;8369640;28;19964;-51
2021/11/04 21:24:11;;;;;;;;;;;16.50;42.80;;;;;;8369182;28;19971;-49
2021/11/04 21:28:12;;;;;;;;;;;16.40;42.80;;;;;;8369614;28;19923;-47
2021/11/04 21:32:12;;;;;;;;;;;16.40;42.80;;;;;;8369462;28;19917;-48
2021/11/04 21:36:13;;;;;;;;;;;16.40;42.80;;;;;;8368943;28;19917;-48
2021/11/04 21:40:14;;;;;;;;;;;16.40;42.80;;;;;;8369196;28;19948;-51
2021/11/04 21:44:15;;;;;;;;;;;16.40;42.80;;;;;;8368885;28;20400;-47
2021/11/04 21:48:16;;;;;;;;;;;16.40;42.80;;;;;;8368713;28;20008;-46
2021/11/04 21:52:16;;;;;;;;;;;16.40;42.80;;;;;;8369035;28;19917;-48
2021/11/04 21:56:17;;;;;;;;;;;16.40;42.80;;;;;;8368387;28;19921;-48
2021/11/04 22:00:20;;;;;;;;;;;16.40;42.80;;;;;;8368245;28;19925;-47
2021/11/04 22:04:21;;;;;;;;;;;16.40;42.80;;;;;;8368106;28;19951;-47
2021/11/04 22:08:22;;;;;;;;;;;16.40;42.80;;;;;;8367716;28;19924;-47
2021/11/04 22:12:22;;;;;;;;;;;16.40;42.80;;;;;;8368430;28;19913;-49
2021/11/04 22:16:23;;;;;;;;;;;16.40;42.80;;;;;;8368115;28;20381;-47
2021/11/04 22:20:24;;;;;;;;;;;16.40;42.80;;;;;;8367487;28;20401;-47
2021/11/04 22:24:24;;;;;;;;;;;16.40;42.80;;;;;;8367848;28;19917;-47
2021/11/04 22:28:25;;;;;;;;;;;16.40;42.80;;;;;;8367350;28;20425;-48
2021/11/04 22:32:26;;;;;;;;;;;16.30;42.80;;;;;;8366991;28;19913;-49
2021/11/04 22:36:26;;;;;;;;;;;16.40;42.80;;;;;;8367421;28;20386;-50
2021/11/04 22:40:27;;;;;;;;;;;16.40;42.80;;;;;;8366930;28;19929;-48
2021/11/04 22:44:28;;;;;;;;;;;16.30;42.70;;;;;;8366837;28;19917;-48
2021/11/04 22:48:34;;;;;;;;;;;16.40;42.80;;;;;;8367147;28;19917;-49
2021/11/04 22:52:35;;;;;;;;;;;16.40;42.80;;;;;;8368106;28;19913;-48
2021/11/04 22:56:36;;;;;;;;;;;16.30;42.80;;;;;;8367098;28;19979;-49
2021/11/04 23:00:44;;;;;;;;;;;16.30;42.70;;;;;;8365641;28;19929;-49
2021/11/04 23:04:45;;;;;;;;;;;16.30;42.80;;;;;;8366524;28;20404;-49
2021/11/04 23:08:45;;;;;;;;;;;16.30;42.80;;;;;;8364626;28;19916;-48
2021/11/04 23:12:46;;;;;;;;;;;16.30;42.80;;;;;;8365813;28;19920;-47
2021/11/04 23:16:46;;;;;;;;;;;16.30;42.80;;;;;;8366052;28;20465;-47
2021/11/04 23:20:47;;;;;;;;;;;16.30;42.80;;;;;;8365364;28;19925;-47
2021/11/04 23:24:48;;;;;;;;;;;16.30;42.80;;;;;;8366327;28;20266;-47